createdAt,value
2018-02-13T00:00:34.648Z,12.53
2018-02-13T00:05:36.019Z,16.23
2018-02-13T00:10:37.604Z,15.10
2018-02-13T00:15:39.658Z,14.73
2018-02-13T00:20:41.100Z,16.30
2018-02-13T00:25:42.475Z,16.10
2018-02-13T00:30:43.795Z,17.30
2018-02-13T00:35:45.152Z,19.10
2018-02-13T00:40:46.523Z,17.97
2018-02-13T00:45:47.884Z,21.40
2018-02-13T00:50:49.331Z,18.63
2018-02-13T00:55:50.679Z,20.10
2018-02-13T01:00:52.078Z,20.13
2018-02-13T01:05:53.506Z,19.93
2018-02-13T01:10:54.880Z,20.37
2018-02-13T01:15:56.193Z,18.90
2018-02-13T01:20:58.327Z,19.40
2018-02-13T01:25:59.692Z,21.40
2018-02-13T01:31:01.830Z,20.63
2018-02-13T01:36:03.221Z,19.30
2018-02-13T01:41:04.678Z,20.47
2018-02-13T01:46:06.755Z,21.40
2018-02-13T01:51:08.107Z,18.77
2018-02-13T01:56:09.436Z,19.47
2018-02-13T02:01:10.834Z,20.47
2018-02-13T02:06:12.198Z,18.67
2018-02-13T02:11:13.559Z,19.53
2018-02-13T02:16:14.918Z,19.47
2018-02-13T02:21:16.322Z,19.77
2018-02-13T02:26:17.689Z,20.10
2018-02-13T02:31:19.020Z,20.63
2018-02-13T02:36:20.387Z,19.63
2018-02-13T02:41:22.482Z,20.00
2018-02-13T02:46:23.817Z,19.43
2018-02-13T02:51:26.951Z,21.53
2018-02-13T02:56:28.308Z,20.23
2018-02-13T03:01:29.630Z,19.30
2018-02-13T03:06:30.980Z,19.67
2018-02-13T03:11:32.327Z,17.87
2018-02-13T03:16:33.680Z,18.53
2018-02-13T03:21:35.779Z,17.53
2018-02-13T03:26:37.867Z,16.83
2018-02-13T03:31:39.226Z,18.27
2018-02-13T03:36:40.646Z,17.53
2018-02-13T03:41:41.983Z,17.47
2018-02-13T03:46:43.353Z,18.10
2018-02-13T03:51:45.439Z,16.53
2018-02-13T03:56:46.784Z,16.97
2018-02-13T04:01:48.120Z,17.70
2018-02-13T04:06:49.566Z,16.80
2018-02-13T04:11:50.973Z,16.77
2018-02-13T04:16:52.300Z,16.37
2018-02-13T04:21:54.372Z,17.47
2018-02-13T04:26:55.775Z,15.27
2018-02-13T04:31:57.139Z,17.00
2018-02-13T04:36:59.920Z,15.23
2018-02-13T04:42:01.393Z,16.07
2018-02-13T04:47:03.115Z,15.40
2018-02-13T04:52:04.490Z,15.67
2018-02-13T04:57:06.564Z,16.27
2018-02-13T05:02:07.982Z,14.30
2018-02-13T05:07:09.383Z,14.77
2018-02-13T05:12:11.438Z,14.60
2018-02-13T05:17:12.770Z,13.90
2018-02-13T05:22:14.150Z,14.20
2018-02-13T05:27:15.588Z,13.10
2018-02-13T05:32:16.920Z,12.80
2018-02-13T05:37:18.416Z,12.97
2018-02-13T05:42:19.817Z,12.23
2018-02-13T05:47:21.821Z,12.50
2018-02-13T05:52:23.288Z,11.43
2018-02-13T05:57:24.630Z,12.50
2018-02-13T06:02:25.969Z,12.03
2018-02-13T06:07:27.338Z,12.03
2018-02-13T06:12:28.693Z,12.13
2018-02-13T06:17:30.762Z,11.40
2018-02-13T06:22:32.125Z,11.17
2018-02-13T06:27:33.463Z,10.70
2018-02-13T06:32:34.790Z,10.20
2018-02-13T06:37:36.133Z,10.90
2018-02-13T06:42:37.462Z,9.77
2018-02-13T06:47:38.814Z,13.07
2018-02-13T06:52:40.158Z,10.13
2018-02-13T06:57:41.488Z,9.10
2018-02-13T07:02:42.846Z,8.73
2018-02-13T07:07:44.177Z,9.30
2018-02-13T07:12:45.514Z,9.30
2018-02-13T07:17:46.965Z,8.60
2018-02-13T07:22:48.278Z,8.20
2018-02-13T07:27:49.619Z,8.17
2018-02-13T07:32:50.950Z,8.43
2018-02-13T07:37:53.026Z,7.90
2018-02-13T07:42:54.354Z,8.93
2018-02-13T07:47:55.738Z,8.60
2018-02-13T07:53:03.959Z,7.57
2018-02-13T07:58:05.324Z,7.67
2018-02-13T08:03:06.666Z,7.57
2018-02-13T08:08:08.028Z,7.63
2018-02-13T08:13:09.343Z,8.93
2018-02-13T08:18:11.439Z,8.47
2018-02-13T08:23:13.500Z,7.40
2018-02-13T08:28:14.877Z,8.37
2018-02-13T08:33:16.230Z,7.60
2018-02-13T08:38:18.371Z,8.40
2018-02-13T08:43:19.743Z,8.07
2018-02-13T08:48:21.086Z,7.97
2018-02-13T08:53:22.426Z,6.30
2018-02-13T08:58:23.781Z,8.17
2018-02-13T09:03:25.937Z,7.63
2018-02-13T09:08:27.308Z,8.10
2018-02-13T09:13:29.485Z,7.90
2018-02-13T09:18:30.857Z,8.90
2018-02-13T09:23:32.176Z,7.70
2018-02-13T09:28:33.540Z,8.70
2018-02-13T09:33:34.894Z,6.73
2018-02-13T09:38:36.260Z,8.30
2018-02-13T09:43:38.327Z,6.77
2018-02-13T09:48:39.691Z,7.70
2018-02-13T09:53:41.043Z,8.40
2018-02-13T09:58:43.146Z,7.30
2018-02-13T10:03:45.236Z,8.30
2018-02-13T10:08:46.578Z,8.10
2018-02-13T10:13:54.868Z,7.47
2018-02-13T10:18:56.277Z,7.63
2018-02-13T10:23:57.627Z,7.37
2018-02-13T10:28:58.934Z,6.40
2018-02-13T10:34:00.292Z,7.37
2018-02-13T10:39:01.677Z,6.67
2018-02-13T10:44:03.063Z,6.50
2018-02-13T10:49:04.439Z,6.47
2018-02-13T10:54:05.740Z,5.50
2018-02-13T10:59:07.114Z,6.00
2018-02-13T11:04:09.192Z,6.90
2018-02-13T11:09:10.538Z,6.27
2018-02-13T11:14:11.895Z,5.70
2018-02-13T11:19:14.003Z,6.70
2018-02-13T11:24:15.370Z,5.40
2018-02-13T11:29:16.738Z,4.80
2018-02-13T11:34:18.106Z,5.20
2018-02-13T11:39:20.426Z,6.10
2018-02-13T11:44:21.766Z,5.63
2018-02-13T11:49:23.269Z,5.80
2018-02-13T11:54:24.614Z,5.30
2018-02-13T11:59:25.977Z,5.80
2018-02-13T12:04:27.297Z,5.07
2018-02-13T12:09:28.638Z,4.97
2018-02-13T12:14:30.047Z,5.90
2018-02-13T12:19:31.417Z,5.10
2018-02-13T12:24:33.526Z,6.40
2018-02-13T12:29:35.637Z,5.33
2018-02-13T12:34:37.754Z,5.17
2018-02-13T12:39:39.142Z,4.67
2018-02-13T12:44:40.483Z,5.13
2018-02-13T12:49:41.852Z,4.37
2018-02-13T12:54:43.181Z,4.70
2018-02-13T12:59:44.533Z,4.57
2018-02-13T13:04:45.982Z,5.00
2018-02-13T13:09:47.364Z,5.30
2018-02-13T13:14:49.441Z,6.17
2018-02-13T13:19:50.811Z,5.10
2018-02-13T13:24:52.217Z,5.50
2018-02-13T13:29:53.620Z,4.47
2018-02-13T13:34:54.995Z,4.90
2018-02-13T13:39:56.413Z,4.30
2018-02-13T13:44:57.840Z,4.33
2018-02-13T13:49:59.262Z,5.00
2018-02-13T13:55:01.877Z,4.10
2018-02-13T14:00:03.320Z,3.83
2018-02-13T14:05:05.519Z,4.23
2018-02-13T14:10:06.894Z,3.67
2018-02-13T14:15:08.365Z,4.10
2018-02-13T14:20:09.812Z,3.70
2018-02-13T14:25:11.924Z,3.87
2018-02-13T14:30:13.323Z,4.90
2018-02-13T14:35:14.674Z,5.30
2018-02-13T14:40:16.068Z,4.87
2018-02-13T14:45:17.476Z,5.57
2018-02-13T14:50:19.690Z,4.77
2018-02-13T14:55:21.748Z,4.70
2018-02-13T15:00:23.154Z,4.90
2018-02-13T15:05:24.476Z,4.60
2018-02-13T15:10:26.623Z,4.90
2018-02-13T15:15:28.054Z,4.97
2018-02-13T15:20:29.470Z,4.50
2018-02-13T15:25:30.790Z,4.17
2018-02-13T15:30:32.202Z,4.50
2018-02-13T15:35:33.547Z,4.83
2018-02-13T15:40:34.940Z,5.07
2018-02-13T15:45:36.292Z,5.10
2018-02-13T15:50:37.659Z,5.13
2018-02-13T15:55:39.027Z,5.33
2018-02-13T16:00:40.372Z,4.33
2018-02-13T16:05:42.452Z,4.33
2018-02-13T16:10:43.786Z,4.90
2018-02-13T16:15:45.922Z,4.77
2018-02-13T16:20:47.259Z,4.30
2018-02-13T16:25:48.629Z,5.13
2018-02-13T16:30:49.958Z,6.40
2018-02-13T16:35:52.074Z,5.47
2018-02-13T16:40:53.484Z,5.63
2018-02-13T16:45:54.867Z,5.73
2018-02-13T16:50:56.234Z,5.10
2018-02-13T16:56:05.390Z,5.30
2018-02-13T17:01:06.816Z,5.97
2018-02-13T17:06:08.155Z,7.30
2018-02-13T17:11:09.518Z,5.90
2018-02-13T17:16:10.956Z,7.00
2018-02-13T17:21:12.299Z,7.97
2018-02-13T17:26:13.685Z,7.70
2018-02-13T17:31:16.759Z,7.10
2018-02-13T17:36:18.104Z,7.47
2018-02-13T17:41:19.450Z,6.50
2018-02-13T17:46:20.979Z,7.97
2018-02-13T17:51:22.422Z,7.20
2018-02-13T17:56:23.773Z,7.30
2018-02-13T18:01:25.169Z,7.07
2018-02-13T18:06:26.470Z,9.10
2018-02-13T18:11:27.825Z,8.80
2018-02-13T18:16:29.140Z,24.93
2018-02-13T18:21:30.578Z,21.43
2018-02-13T18:26:31.970Z,15.07
2018-02-13T18:31:33.511Z,25.43
2018-02-13T18:36:34.959Z,11.33
2018-02-13T18:41:37.290Z,9.60
2018-02-13T18:46:39.347Z,11.30
2018-02-13T18:51:40.973Z,18.93
2018-02-13T18:56:43.046Z,8.60
2018-02-13T19:01:44.411Z,18.93
2018-02-13T19:06:45.779Z,30.17
2018-02-13T19:11:47.102Z,26.70
2018-02-13T19:21:51.310Z,8.23
2018-02-13T19:26:52.693Z,12.97
2018-02-13T19:31:54.089Z,8.90
2018-02-13T19:36:55.645Z,7.87
2018-02-13T19:41:57.767Z,8.50
2018-02-13T19:46:59.283Z,9.07
2018-02-13T19:52:00.886Z,8.00
2018-02-13T19:57:02.498Z,9.23
2018-02-13T20:02:03.883Z,8.90
2018-02-13T20:07:05.400Z,7.60
2018-02-13T20:12:06.844Z,7.07
2018-02-13T20:17:08.175Z,7.63
2018-02-13T20:22:09.523Z,7.57
2018-02-13T20:27:11.006Z,7.93
2018-02-13T20:32:12.367Z,7.93
2018-02-13T20:37:14.505Z,9.40
2018-02-13T20:42:16.884Z,8.80
2018-02-13T20:47:19.039Z,7.50
2018-02-13T20:52:21.000Z,7.00
2018-02-13T20:57:22.343Z,7.57
2018-02-13T21:02:23.668Z,8.03
2018-02-13T21:07:24.968Z,8.33
2018-02-13T21:12:27.404Z,7.50
2018-02-13T21:17:29.298Z,8.60
2018-02-13T21:22:30.916Z,7.67
2018-02-13T21:27:32.377Z,8.30
2018-02-13T21:32:33.770Z,8.33
2018-02-13T21:37:35.134Z,8.23
2018-02-13T21:42:36.621Z,8.60
2018-02-13T21:47:37.942Z,8.17
2018-02-13T21:52:39.258Z,8.07
2018-02-13T21:57:40.646Z,9.00
2018-02-13T22:02:42.087Z,8.33
2018-02-13T22:07:43.455Z,8.70
2018-02-13T22:12:44.787Z,7.83
2018-02-13T22:17:46.246Z,8.10
2018-02-13T22:22:47.588Z,8.50
2018-02-13T22:27:49.662Z,8.67
2018-02-13T22:32:51.007Z,8.30
2018-02-13T22:37:52.460Z,7.60
2018-02-13T22:42:53.921Z,7.90
2018-02-13T22:47:55.405Z,8.10
2018-02-13T22:52:56.843Z,9.57
2018-02-13T22:57:58.181Z,7.63
2018-02-13T23:02:59.551Z,7.90
2018-02-13T23:08:01.072Z,7.50
2018-02-13T23:13:02.499Z,8.20
2018-02-13T23:18:03.820Z,7.47
2018-02-13T23:23:05.182Z,7.27
2018-02-13T23:28:06.575Z,6.93
2018-02-13T23:33:07.950Z,7.80
2018-02-13T23:38:09.286Z,8.10
2018-02-13T23:43:10.642Z,8.50
2018-02-13T23:48:12.776Z,7.57
2018-02-13T23:53:14.139Z,8.00
2018-02-13T23:58:15.467Z,7.67
